createdAt,value
2023-04-15T00:00:29.650Z,99374.34
2023-04-15T00:03:32.233Z,99374.13
2023-04-15T00:06:35.177Z,99375.78
2023-04-15T00:09:38.002Z,99367.16
2023-04-15T00:12:40.523Z,99375.56
2023-04-15T00:15:43.361Z,99370.91
2023-04-15T00:18:45.903Z,99376.81
2023-04-15T00:21:48.162Z,99378.50
2023-04-15T00:24:50.807Z,99371.28
2023-04-15T00:27:53.028Z,99379.94
2023-04-15T00:30:55.503Z,99371.03
2023-04-15T00:33:58.527Z,99364.06
2023-04-15T00:37:00.851Z,99369.25
2023-04-15T00:40:06.315Z,99365.53
2023-04-15T00:43:08.620Z,99366.38
2023-04-15T00:46:13.414Z,99371.78
2023-04-15T00:49:15.722Z,99378.03
2023-04-15T00:52:18.155Z,99365.75
2023-04-15T00:55:21.011Z,99371.03
2023-04-15T00:58:23.529Z,99355.69
2023-04-15T01:01:26.545Z,99353.06
2023-04-15T01:04:28.950Z,99362.41
2023-04-15T01:07:31.976Z,99356.44
2023-04-15T01:10:34.276Z,99359.78
2023-04-15T01:13:36.886Z,99350.91
2023-04-15T01:16:39.902Z,99352.56
2023-04-15T01:19:42.379Z,99345.59
2023-04-15T01:22:45.372Z,99355.00
2023-04-15T01:25:47.986Z,99345.16
2023-04-15T01:28:50.816Z,99351.06
2023-04-15T01:31:55.084Z,99359.84
2023-04-15T01:34:57.443Z,99364.38
2023-04-15T01:38:10.099Z,99358.88
2023-04-15T01:41:14.363Z,99362.72
2023-04-15T01:44:16.936Z,99358.41
2023-04-15T01:47:19.420Z,99366.09
2023-04-15T01:50:23.138Z,99353.50
2023-04-15T01:53:25.905Z,99353.34
2023-04-15T01:56:28.207Z,99361.28
2023-04-15T01:59:31.395Z,99364.06
2023-04-15T02:02:34.665Z,99370.19
2023-04-15T02:05:37.046Z,99364.66
2023-04-15T02:08:39.751Z,99364.66
2023-04-15T02:11:43.095Z,99370.19
2023-04-15T02:14:45.377Z,99379.53
2023-04-15T02:17:51.105Z,99363.56
2023-04-15T02:20:53.503Z,99368.53
2023-04-15T02:23:56.328Z,99376.56
2023-04-15T02:26:58.611Z,99382.69
2023-04-15T02:30:01.208Z,99371.88
2023-04-15T02:33:04.356Z,99375.72
2023-04-15T02:36:07.996Z,99379.09
2023-04-15T02:39:10.344Z,99378.47
2023-04-15T02:42:13.843Z,99380.72
2023-04-15T02:45:16.278Z,99380.13
2023-04-15T02:48:20.461Z,99379.03
2023-04-15T02:51:23.033Z,99375.56
2023-04-15T02:54:28.688Z,99377.75
2023-04-15T02:57:31.018Z,99368.75
2023-04-15T03:00:37.999Z,99367.16
2023-04-15T03:03:40.540Z,99370.16
2023-04-15T03:06:42.883Z,99368.13
2023-04-15T03:09:46.314Z,99369.13
2023-04-15T03:12:49.011Z,99369.13
2023-04-15T03:15:54.526Z,99364.38
2023-04-15T03:18:58.734Z,99366.28
2023-04-15T03:22:01.101Z,99367.56
2023-04-15T03:25:03.757Z,99365.97
2023-04-15T03:28:08.199Z,99366.91
2023-04-15T03:31:10.731Z,99370.69
2023-04-15T03:34:13.092Z,99371.78
2023-04-15T03:37:15.558Z,99370.34
2023-04-15T03:40:17.801Z,99363.66
2023-04-15T03:43:20.025Z,99364.16
2023-04-15T03:46:22.323Z,99372.09
2023-04-15T03:49:24.889Z,99366.31
2023-04-15T03:52:27.198Z,99367.59
2023-04-15T03:55:29.467Z,99360.41
2023-04-15T03:58:31.782Z,99361.00
2023-04-15T04:01:34.056Z,99367.75
2023-04-15T04:04:36.352Z,99366.66
2023-04-15T04:07:38.753Z,99368.34
2023-04-15T04:10:40.972Z,99362.94
2023-04-15T04:13:43.229Z,99360.81
2023-04-15T04:16:46.028Z,99365.38
2023-04-15T04:19:48.277Z,99358.41
2023-04-15T04:22:50.802Z,99358.16
2023-04-15T04:25:53.644Z,99368.34
2023-04-15T04:28:55.887Z,99365.38
2023-04-15T04:31:58.153Z,99370.16
2023-04-15T04:35:00.464Z,99372.53
2023-04-15T04:38:02.765Z,99363.16
2023-04-15T04:41:05.475Z,99358.03
2023-04-15T04:44:07.747Z,99359.84
2023-04-15T04:47:10.068Z,99364.06
2023-04-15T04:50:12.504Z,99371.63
2023-04-15T04:53:15.155Z,99368.53
2023-04-15T04:56:17.896Z,99374.56
2023-04-15T04:59:20.448Z,99377.91
2023-04-15T05:02:22.850Z,99369.50
2023-04-15T05:05:25.539Z,99365.53
2023-04-15T05:08:27.812Z,99358.94
2023-04-15T05:11:30.058Z,99365.19
2023-04-15T05:14:32.414Z,99373.63
2023-04-15T05:17:35.422Z,99371.06
2023-04-15T05:20:37.758Z,99371.66
2023-04-15T05:23:40.177Z,99372.13
2023-04-15T05:26:42.949Z,99380.75
2023-04-15T05:29:45.312Z,99370.44
2023-04-15T05:32:47.744Z,99375.00
2023-04-15T05:35:50.536Z,99375.25
2023-04-15T05:38:52.921Z,99377.19
2023-04-15T05:41:55.201Z,99392.06
2023-04-15T05:44:57.454Z,99386.31
2023-04-15T05:47:59.765Z,99388.88
2023-04-15T05:51:02.136Z,99390.88
2023-04-15T05:54:04.525Z,99393.53
2023-04-15T05:57:07.443Z,99397.22
2023-04-15T06:00:10.294Z,99399.94
2023-04-15T06:03:14.053Z,99402.38
2023-04-15T06:06:16.350Z,99406.47
2023-04-15T06:09:18.633Z,99413.59
2023-04-15T06:12:20.951Z,99413.84
2023-04-15T06:15:23.447Z,99415.03
2023-04-15T06:18:25.752Z,99414.03
2023-04-15T06:21:28.134Z,99407.34
2023-04-15T06:24:30.620Z,99407.66
2023-04-15T06:27:33.038Z,99410.88
2023-04-15T06:30:36.198Z,99418.16
2023-04-15T06:33:39.574Z,99418.38
2023-04-15T06:36:41.741Z,99417.31
2023-04-15T06:39:44.830Z,99411.34
2023-04-15T06:42:46.945Z,99405.47
2023-04-15T06:45:51.016Z,99408.72
2023-04-15T06:48:53.699Z,99424.13
2023-04-15T06:51:55.894Z,99420.25
2023-04-15T06:54:59.549Z,99416.94
2023-04-15T06:58:02.094Z,99418.59
2023-04-15T07:01:04.555Z,99408.16
2023-04-15T07:04:07.026Z,99418.03
2023-04-15T07:07:09.561Z,99406.88
2023-04-15T07:10:12.146Z,99412.19
2023-04-15T07:13:14.476Z,99418.59
2023-04-15T07:16:16.800Z,99411.00
2023-04-15T07:19:19.104Z,99417.94
2023-04-15T07:22:21.332Z,99417.94
2023-04-15T07:25:23.635Z,99412.22
2023-04-15T07:28:26.096Z,99421.59
2023-04-15T07:31:28.568Z,99422.63
2023-04-15T07:34:32.168Z,99411.56
2023-04-15T07:37:34.990Z,99416.94
2023-04-15T07:40:37.226Z,99412.56
2023-04-15T07:43:39.775Z,99424.56
2023-04-15T07:46:42.050Z,99423.75
2023-04-15T07:49:44.669Z,99435.25
2023-04-15T07:52:47.067Z,99432.75
2023-04-15T07:55:49.416Z,99429.63
2023-04-15T07:58:51.694Z,99424.94
2023-04-15T08:01:54.388Z,99447.13
2023-04-15T08:04:56.664Z,99434.13
2023-04-15T08:07:59.069Z,99435.81
2023-04-15T08:11:01.318Z,99435.81
2023-04-15T08:14:03.581Z,99443.13
2023-04-15T08:17:06.718Z,99440.13
2023-04-15T08:20:10.227Z,99444.50
2023-04-15T08:23:12.504Z,99446.31
2023-04-15T08:26:14.794Z,99457.16
2023-04-15T08:29:17.379Z,99452.97
2023-04-15T08:32:20.311Z,99453.06
2023-04-15T08:35:22.995Z,99465.25
2023-04-15T08:38:25.551Z,99457.41
2023-04-15T08:41:35.862Z,99467.91
2023-04-15T08:44:38.980Z,99465.03
2023-04-15T08:47:42.423Z,99471.06
2023-04-15T08:50:45.832Z,99457.44
2023-04-15T08:53:48.399Z,99467.41
2023-04-15T08:56:50.699Z,99465.78
2023-04-15T08:59:53.545Z,99462.72
2023-04-15T09:02:57.010Z,99474.44
2023-04-15T09:05:59.794Z,99471.06
2023-04-15T09:09:02.237Z,99471.69
2023-04-15T09:12:04.663Z,99470.81
2023-04-15T09:15:09.111Z,99469.06
2023-04-15T09:18:28.630Z,99471.22
2023-04-15T09:21:32.035Z,99482.72
2023-04-15T09:24:38.249Z,99481.38
2023-04-15T09:27:52.550Z,99473.78
2023-04-15T09:31:02.060Z,99477.88
2023-04-15T09:34:04.563Z,99478.66
2023-04-15T09:37:07.840Z,99479.38
2023-04-15T09:40:10.712Z,99479.75
2023-04-15T09:43:13.651Z,99482.41
2023-04-15T09:46:16.245Z,99478.84
2023-04-15T09:49:18.662Z,99483.75
2023-04-15T09:52:28.796Z,99484.53
2023-04-15T09:55:36.804Z,99487.13
2023-04-15T09:58:39.358Z,99486.34
2023-04-15T10:01:42.755Z,99485.88
2023-04-15T10:04:45.632Z,99491.44
2023-04-15T10:07:48.379Z,99485.28
2023-04-15T10:10:54.266Z,99493.78
2023-04-15T10:14:03.112Z,99495.47
2023-04-15T10:17:06.126Z,99502.84
2023-04-15T10:20:09.404Z,99511.25
2023-04-15T10:23:13.444Z,99507.25
2023-04-15T10:26:17.815Z,99511.56
2023-04-15T10:29:20.497Z,99512.50
2023-04-15T10:32:24.895Z,99511.75
2023-04-15T10:35:28.677Z,99509.34
2023-04-15T10:38:44.533Z,99511.81
2023-04-15T10:41:46.828Z,99505.00
2023-04-15T10:44:51.869Z,99513.69
2023-04-15T10:47:58.391Z,99516.13
2023-04-15T10:51:03.967Z,99518.38
2023-04-15T10:54:09.807Z,99524.44
2023-04-15T10:57:16.447Z,99528.16
2023-04-15T11:00:21.005Z,99530.25
2023-04-15T11:03:40.567Z,99528.19
2023-04-15T11:06:46.284Z,99540.41
2023-04-15T11:09:48.507Z,99526.63
2023-04-15T11:12:56.732Z,99541.38
2023-04-15T11:16:01.360Z,99521.75
2023-04-15T11:19:07.100Z,99531.84
2023-04-15T11:22:10.423Z,99536.44
2023-04-15T11:25:29.437Z,99521.25
2023-04-15T11:28:32.880Z,99526.78
2023-04-15T11:31:35.239Z,99525.09
2023-04-15T11:34:37.503Z,99527.38
2023-04-15T11:37:39.780Z,99526.41
2023-04-15T11:40:45.293Z,99524.72
2023-04-15T11:43:50.466Z,99526.03
2023-04-15T11:46:52.812Z,99531.34
2023-04-15T11:49:55.057Z,99527.06
2023-04-15T11:53:02.990Z,99534.19
2023-04-15T11:56:05.754Z,99541.38
2023-04-15T11:59:08.008Z,99545.88
2023-04-15T12:02:14.265Z,99542.75
2023-04-15T12:05:17.064Z,99538.34
2023-04-15T12:08:19.560Z,99542.94
2023-04-15T12:11:27.753Z,99543.41
2023-04-15T12:14:34.066Z,99545.84
2023-04-15T12:17:51.130Z,99537.56
2023-04-15T12:20:54.798Z,99539.38
2023-04-15T12:23:57.968Z,99534.53
2023-04-15T12:27:08.703Z,99529.81
2023-04-15T12:30:11.737Z,99537.91
2023-04-15T12:33:14.177Z,99535.94
2023-04-15T12:36:16.715Z,99546.00
2023-04-15T12:39:22.738Z,99550.84
2023-04-15T12:42:25.250Z,99547.97
2023-04-15T12:45:28.909Z,99549.41
2023-04-15T12:48:33.231Z,99552.53
2023-04-15T12:51:35.551Z,99547.25
2023-04-15T12:54:37.860Z,99549.41
2023-04-15T12:57:40.181Z,99551.50
2023-04-15T13:00:42.919Z,99556.81
2023-04-15T13:03:45.520Z,99554.94
2023-04-15T13:06:48.153Z,99557.56
2023-04-15T13:09:50.612Z,99568.66
2023-04-15T13:12:53.770Z,99571.38
2023-04-15T13:15:56.528Z,99556.28
2023-04-15T13:19:03.456Z,99562.66
2023-04-15T13:22:07.024Z,99564.06
2023-04-15T13:25:09.483Z,99557.19
2023-04-15T13:28:12.062Z,99552.72
2023-04-15T13:31:14.438Z,99562.19
2023-04-15T13:34:16.747Z,99558.16
2023-04-15T13:37:19.035Z,99568.59
2023-04-15T13:40:22.350Z,99564.19
2023-04-15T13:43:24.598Z,99563.44
2023-04-15T13:46:26.932Z,99577.69
2023-04-15T13:49:29.524Z,99575.66
2023-04-15T13:52:31.767Z,99582.09
2023-04-15T13:55:35.560Z,99577.03
2023-04-15T13:58:38.588Z,99573.66
2023-04-15T14:01:44.579Z,99573.94
2023-04-15T14:04:46.820Z,99584.53
2023-04-15T14:07:49.047Z,99584.06
2023-04-15T14:10:51.263Z,99575.59
2023-04-15T14:13:53.527Z,99578.56
2023-04-15T14:16:56.733Z,99583.94
2023-04-15T14:19:59.033Z,99590.09
2023-04-15T14:23:01.317Z,99593.16
2023-04-15T14:26:03.594Z,99592.25
2023-04-15T14:29:06.013Z,99594.78
2023-04-15T14:32:11.327Z,99603.03
2023-04-15T14:35:14.834Z,99612.31
2023-04-15T14:38:17.105Z,99608.78
2023-04-15T14:41:19.440Z,99614.19
2023-04-15T14:44:21.662Z,99619.28
2023-04-15T14:47:24.223Z,99620.13
2023-04-15T14:50:26.620Z,99621.09
2023-04-15T14:53:28.866Z,99624.22
2023-04-15T14:56:31.206Z,99619.66
2023-04-15T14:59:33.495Z,99620.25
2023-04-15T15:02:39.677Z,99623.28
2023-04-15T15:05:45.182Z,99622.09
2023-04-15T15:08:49.166Z,99618.44
2023-04-15T15:11:51.427Z,99625.34
2023-04-15T15:14:56.118Z,99628.22
2023-04-15T15:17:58.595Z,99628.44
2023-04-15T15:21:01.031Z,99627.34
2023-04-15T15:24:03.362Z,99636.66
2023-04-15T15:27:05.881Z,99643.81
2023-04-15T15:30:08.699Z,99639.19
2023-04-15T15:33:11.107Z,99647.41
2023-04-15T15:36:13.379Z,99650.28
2023-04-15T15:39:16.027Z,99662.81
2023-04-15T15:42:21.576Z,99664.78
2023-04-15T15:45:23.830Z,99662.97
2023-04-15T15:48:26.129Z,99668.75
2023-04-15T15:51:28.796Z,99679.94
2023-04-15T15:54:31.941Z,99688.63
2023-04-15T15:57:34.224Z,99691.06
2023-04-15T16:00:36.721Z,99690.09
2023-04-15T16:03:39.518Z,99701.91
2023-04-15T16:06:43.143Z,99699.97
2023-04-15T16:09:45.406Z,99698.50
2023-04-15T16:12:47.774Z,99698.78
2023-04-15T16:15:50.321Z,99694.03
2023-04-15T16:18:52.578Z,99701.19
2023-04-15T16:21:54.862Z,99695.63
2023-04-15T16:24:57.217Z,99692.13
2023-04-15T16:28:08.603Z,99689.97
2023-04-15T16:31:17.191Z,99678.03
2023-04-15T16:34:19.964Z,99693.94
2023-04-15T16:37:22.198Z,99698.53
2023-04-15T16:40:24.995Z,99707.44
2023-04-15T16:43:28.023Z,99710.09
2023-04-15T16:46:30.981Z,99714.19
2023-04-15T16:49:34.965Z,99717.81
2023-04-15T16:52:37.142Z,99723.47
2023-04-15T16:55:39.918Z,99726.97
2023-04-15T16:58:42.257Z,99735.88
2023-04-15T17:01:44.768Z,99735.19
2023-04-15T17:04:47.000Z,99739.63
2023-04-15T17:07:49.231Z,99745.06
2023-04-15T17:10:51.902Z,99744.56
2023-04-15T17:13:54.364Z,99750.09
2023-04-15T17:16:56.595Z,99756.13
2023-04-15T17:19:58.880Z,99760.47
2023-04-15T17:23:01.173Z,99768.50
2023-04-15T17:26:03.478Z,99777.31
2023-04-15T17:29:06.326Z,99771.72
2023-04-15T17:32:10.213Z,99772.84
2023-04-15T17:35:12.551Z,99785.13
2023-04-15T17:38:14.990Z,99776.56
2023-04-15T17:41:17.261Z,99783.50
2023-04-15T17:44:20.270Z,99779.06
2023-04-15T17:47:22.424Z,99783.16
2023-04-15T17:50:24.470Z,99792.59
2023-04-15T17:53:26.575Z,99786.31
2023-04-15T17:56:29.361Z,99805.38
2023-04-15T17:59:32.826Z,99796.69
2023-04-15T18:02:37.237Z,99803.69
2023-04-15T18:05:41.997Z,99803.97
2023-04-15T18:08:44.881Z,99804.38
2023-04-15T18:11:48.422Z,99812.69
2023-04-15T18:14:50.815Z,99817.19
2023-04-15T18:17:53.194Z,99825.84
2023-04-15T18:20:56.063Z,99838.03
2023-04-15T18:24:04.010Z,99838.88
2023-04-15T18:27:06.652Z,99851.41
2023-04-15T18:30:10.526Z,99841.41
2023-04-15T18:33:12.886Z,99851.41
2023-04-15T18:36:15.160Z,99849.94
2023-04-15T18:39:17.383Z,99858.59
2023-04-15T18:42:20.394Z,99866.56
2023-04-15T18:45:22.662Z,99877.91
2023-04-15T18:48:26.371Z,99881.72
2023-04-15T18:51:28.626Z,99893.28
2023-04-15T18:54:30.937Z,99893.28
2023-04-15T18:57:37.603Z,99891.84
2023-04-15T19:00:41.838Z,99891.44
2023-04-15T19:03:44.328Z,99902.91
2023-04-15T19:06:49.805Z,99904.81
2023-04-15T19:09:53.122Z,99911.09
2023-04-15T19:12:55.648Z,99914.72
2023-04-15T19:15:57.983Z,99918.88
2023-04-15T19:19:00.417Z,99929.59
2023-04-15T19:22:03.505Z,99932.50
2023-04-15T19:25:06.339Z,99938.00
2023-04-15T19:28:08.665Z,99945.66
2023-04-15T19:31:36.077Z,99938.06
2023-04-15T19:34:38.384Z,99938.91
2023-04-15T19:37:40.729Z,99944.22
2023-04-15T19:40:42.960Z,99950.34
2023-04-15T19:43:45.314Z,99953.97
2023-04-15T19:46:50.007Z,99954.19
2023-04-15T19:49:52.745Z,99958.75
2023-04-15T19:52:55.238Z,99963.72
2023-04-15T19:55:57.478Z,99964.22
2023-04-15T19:58:59.878Z,99956.03
2023-04-15T20:02:02.680Z,99968.75
2023-04-15T20:05:09.667Z,99962.16
2023-04-15T20:08:12.038Z,99962.88
2023-04-15T20:11:15.152Z,99976.13
2023-04-15T20:14:17.904Z,99962.16
2023-04-15T20:17:20.452Z,99967.22
2023-04-15T20:20:23.085Z,99969.13
2023-04-15T20:23:25.419Z,99970.84
2023-04-15T20:26:27.705Z,99969.56
2023-04-15T20:29:29.917Z,99971.25
2023-04-15T20:32:36.112Z,99976.13
2023-04-15T20:35:38.985Z,99971.50
2023-04-15T20:38:41.404Z,99976.00
2023-04-15T20:41:43.776Z,99981.00
2023-04-15T20:44:48.870Z,99978.13
2023-04-15T20:47:51.225Z,99983.00
2023-04-15T20:50:53.435Z,99988.06
2023-04-15T20:53:55.747Z,99985.75
2023-04-15T20:56:58.224Z,99994.66
2023-04-15T21:00:00.528Z,100000.06
2023-04-15T21:03:03.742Z,100006.31
2023-04-15T21:06:06.108Z,100001.25
2023-04-15T21:09:08.402Z,100004.84
2023-04-15T21:12:11.251Z,100016.53
2023-04-15T21:15:13.544Z,100010.16
2023-04-15T21:18:15.971Z,100021.28
2023-04-15T21:21:18.227Z,100034.00
2023-04-15T21:24:20.605Z,100033.50
2023-04-15T21:27:22.887Z,100033.06
2023-04-15T21:30:25.593Z,100039.44
2023-04-15T21:33:27.873Z,100037.50
2023-04-15T21:36:30.211Z,100037.50
2023-04-15T21:39:32.473Z,100041.84
2023-04-15T21:42:34.868Z,100041.34
2023-04-15T21:45:39.401Z,100041.25
2023-04-15T21:48:41.930Z,100047.72
2023-04-15T21:51:45.646Z,100052.47
2023-04-15T21:54:47.927Z,100047.81
2023-04-15T21:57:50.328Z,100058.50
2023-04-15T22:00:57.386Z,100065.00
2023-04-15T22:04:00.072Z,100059.03
2023-04-15T22:07:02.617Z,100056.28
2023-04-15T22:10:05.224Z,100058.41
2023-04-15T22:13:11.176Z,100056.72
2023-04-15T22:16:13.437Z,100060.00
2023-04-15T22:19:15.725Z,100067.59
2023-04-15T22:22:17.971Z,100062.84
2023-04-15T22:25:22.372Z,100067.00
2023-04-15T22:28:24.621Z,100061.50
2023-04-15T22:31:27.014Z,100063.81
2023-04-15T22:34:29.367Z,100057.44
2023-04-15T22:37:31.619Z,100059.91
2023-04-15T22:40:33.984Z,100060.63
2023-04-15T22:43:36.268Z,100065.09
2023-04-15T22:46:38.638Z,100066.66
2023-04-15T22:49:41.498Z,100066.88
2023-04-15T22:52:46.231Z,100080.53
2023-04-15T22:55:49.002Z,100076.94
2023-04-15T22:58:51.646Z,100070.69
2023-04-15T23:01:54.006Z,100069.00
2023-04-15T23:04:56.635Z,100071.44
2023-04-15T23:07:58.917Z,100077.25
2023-04-15T23:11:01.205Z,100073.75
2023-04-15T23:14:03.459Z,100064.94
2023-04-15T23:17:05.918Z,100069.31
2023-04-15T23:20:08.464Z,100072.91
2023-04-15T23:23:10.664Z,100074.19
2023-04-15T23:26:12.932Z,100075.03
2023-04-15T23:29:15.368Z,100080.13
2023-04-15T23:32:17.709Z,100083.50
2023-04-15T23:35:20.064Z,100083.28
2023-04-15T23:38:22.294Z,100088.38
2023-04-15T23:41:24.544Z,100091.03
2023-04-15T23:44:27.110Z,100087.53
2023-04-15T23:47:29.399Z,100086.69
2023-04-15T23:50:31.715Z,100085.00
2023-04-15T23:53:34.131Z,100088.94
2023-04-15T23:56:36.628Z,100093.38
2023-04-15T23:59:38.916Z,100093.59
